Time;durP1;ratioP1;P1;durP2;ratioP2;P2;SDS_P1;SDS_P2;PMS_P1;PMS_P2;Temp;Humidity;BMP_temperature;BMP_pressure;BME280_temperature;BME280_humidity;BME280_pressure;Samples;Min_cycle;Max_cycle;Signal;HPM_P1;HPM_P2
2022/04/06 00:01:28;;;;;;;25.75;19.55;;;7.50;76.20;;;;;;6064085;23;20383;-77
2022/04/06 00:03:55;;;;;;;23.33;17.40;;;7.30;77.30;;;;;;6063157;23;20446;-79
2022/04/06 00:06:22;;;;;;;22.85;18.10;;;7.20;77.40;;;;;;6063208;23;20490;-81
2022/04/06 00:09:09;;;;;;;22.90;18.30;;;7.30;76.70;;;;;;6064207;23;20383;-80
2022/04/06 00:11:36;;;;;;;21.23;16.83;;;7.30;75.80;;;;;;6063234;23;20434;-79
2022/04/06 00:14:03;;;;;;;22.55;18.02;;;7.30;75.60;;;;;;6063139;23;20391;-81
2022/04/06 00:16:29;;;;;;;19.83;15.90;;;7.40;75.00;;;;;;6063012;23;20767;-80
2022/04/06 00:18:57;;;;;;;19.52;15.25;;;7.40;74.70;;;;;;6063522;23;20390;-80
2022/04/06 00:21:27;;;;;;;16.92;14.02;;;7.40;75.50;;;;;;6063545;23;20391;-80
2022/04/06 00:23:54;;;;;;;17.88;13.85;;;7.50;75.00;;;;;;6063889;23;20395;-77
2022/04/06 00:26:21;;;;;;;18.10;14.57;;;7.50;74.60;;;;;;6063880;23;20985;-81
2022/04/06 00:28:48;;;;;;;20.25;14.90;;;7.60;75.70;;;;;;6063739;23;20390;-77
2022/04/06 00:31:15;;;;;;;18.65;13.90;;;7.70;74.60;;;;;;6060672;23;20379;-81
2022/04/06 00:33:42;;;;;;;17.55;13.65;;;7.70;74.30;;;;;;6040331;23;20391;-80
2022/04/06 00:36:09;;;;;;;20.98;16.13;;;7.80;73.60;;;;;;6064479;23;20446;-77
2022/04/06 00:38:36;;;;;;;19.70;15.90;;;7.80;73.80;;;;;;6039754;23;20437;-77
2022/04/06 00:41:03;;;;;;;23.20;18.23;;;7.80;73.60;;;;;;6038964;23;20390;-79
2022/04/06 00:43:30;;;;;;;21.33;17.63;;;7.70;74.30;;;;;;6039916;23;20712;-77
2022/04/06 00:45:57;;;;;;;21.83;17.58;;;7.50;74.20;;;;;;6038873;23;20931;-79
2022/04/06 00:48:24;;;;;;;22.17;18.35;;;7.40;75.10;;;;;;6064742;23;20761;-80
2022/04/06 00:50:51;;;;;;;23.33;18.25;;;7.30;74.90;;;;;;6038041;23;20426;-79
2022/04/06 00:53:19;;;;;;;21.48;17.15;;;7.10;76.40;;;;;;6039936;23;20442;-80
2022/04/06 00:55:48;;;;;;;20.47;16.87;;;7.00;76.40;;;;;;6040285;23;20383;-79
2022/04/06 00:58:15;;;;;;;22.27;17.38;;;7.00;76.50;;;;;;6064607;23;20371;-81
2022/04/06 01:00:42;;;;;;;21.92;17.75;;;7.00;77.40;;;;;;6039485;23;20390;-77
2022/04/06 01:03:10;;;;;;;21.53;17.27;;;7.00;77.80;;;;;;6038692;23;20382;-80
2022/04/06 01:05:37;;;;;;;22.33;17.63;;;7.00;76.50;;;;;;6038978;23;20442;-79
2022/04/06 01:08:04;;;;;;;21.58;16.30;;;7.00;76.30;;;;;;6041127;23;20395;-80
2022/04/06 01:10:30;;;;;;;19.08;15.98;;;7.00;78.00;;;;;;6039690;23;20852;-77
2022/04/06 01:12:58;;;;;;;18.73;15.90;;;7.00;77.10;;;;;;6038228;23;20772;-80
2022/04/06 01:15:26;;;;;;;18.35;15.57;;;7.00;76.30;;;;;;6040452;23;20383;-80
2022/04/06 01:17:53;;;;;;;17.50;14.90;;;7.10;75.20;;;;;;6063760;23;20382;-80
2022/04/06 01:20:20;;;;;;;16.13;13.75;;;7.10;74.80;;;;;;6039485;23;20435;-80
2022/04/06 01:22:47;;;;;;;17.40;13.43;;;7.00;74.30;;;;;;6039976;23;20375;-81
2022/04/06 01:25:14;;;;;;;17.05;12.98;;;7.00;74.10;;;;;;6040438;23;20442;-80
2022/04/06 01:27:40;;;;;;;15.83;12.47;;;7.00;74.60;;;;;;6039353;23;20379;-81
2022/04/06 01:30:08;;;;;;;16.02;12.27;;;7.00;75.00;;;;;;6041591;23;20427;-77
2022/04/06 01:32:35;;;;;;;15.98;12.43;;;7.00;75.30;;;;;;6066190;23;20387;-77
2022/04/06 01:35:04;;;;;;;16.65;13.13;;;7.00;75.40;;;;;;6041911;23;20386;-80
2022/04/06 01:37:31;;;;;;;15.63;13.57;;;7.00;75.60;;;;;;6040908;23;20387;-78
2022/04/06 01:39:58;;;;;;;19.63;14.85;;;6.90;75.70;;;;;;6041368;23;20434;-79
2022/04/06 01:42:25;;;;;;;19.80;15.85;;;6.90;75.50;;;;;;6040281;23;20442;-77
2022/04/06 01:44:52;;;;;;;18.30;14.90;;;6.80;75.50;;;;;;6066390;23;20471;-80
2022/04/06 01:47:21;;;;;;;22.50;17.90;;;6.80;76.10;;;;;;6066352;23;20382;-80
2022/04/06 01:52:35;;;;;;;19.73;16.23;;;6.50;77.10;;;;;;6065267;23;20450;-80
2022/04/06 01:55:13;;;;;;;20.55;16.38;;;6.40;76.80;;;;;;6041577;23;20866;-80
2022/04/06 01:57:41;;;;;;;20.33;15.55;;;6.40;76.60;;;;;;6039997;23;20387;-79
2022/04/06 02:00:10;;;;;;;17.27;13.75;;;6.40;76.60;;;;;;6041900;23;20387;-80
2022/04/06 02:02:38;;;;;;;17.02;14.07;;;6.30;77.00;;;;;;6040607;23;20415;-80
2022/04/06 02:05:06;;;;;;;17.83;13.60;;;6.30;77.00;;;;;;6041250;23;20787;-78
2022/04/06 02:07:33;;;;;;;15.75;12.52;;;6.20;77.40;;;;;;6064903;23;20443;-79
2022/04/06 02:10:00;;;;;;;17.60;14.27;;;6.20;77.30;;;;;;6041359;23;20875;-79
2022/04/06 02:12:28;;;;;;;17.80;13.85;;;6.20;77.40;;;;;;6039998;23;20387;-80
2022/04/06 02:14:56;;;;;;;17.27;13.95;;;6.20;77.00;;;;;;6041476;23;20468;-77
2022/04/06 02:17:25;;;;;;;19.33;15.05;;;6.20;76.60;;;;;;6040191;23;20442;-80
2022/04/06 02:19:52;;;;;;;20.90;15.90;;;6.20;76.80;;;;;;6065634;23;21056;-80
2022/04/06 02:22:19;;;;;;;20.00;15.57;;;6.10;76.80;;;;;;6040997;23;20383;-80
2022/04/06 02:24:46;;;;;;;21.55;15.32;;;6.10;76.40;;;;;;6040716;23;20830;-76
2022/04/06 02:27:13;;;;;;;18.38;14.98;;;6.10;77.30;;;;;;6066270;23;20716;-80
2022/04/06 02:29:40;;;;;;;21.13;16.17;;;6.00;77.20;;;;;;6064303;23;20442;-79
2022/04/06 02:32:08;;;;;;;22.65;16.55;;;5.90;78.20;;;;;;6065528;23;20379;-77
2022/04/06 02:34:36;;;;;;;20.70;16.40;;;5.90;77.90;;;;;;6063969;23;20390;-80
2022/04/06 02:37:04;;;;;;;21.45;16.75;;;5.90;78.70;;;;;;6041328;23;20864;-80
2022/04/06 02:39:31;;;;;;;21.15;16.80;;;5.90;78.60;;;;;;6038215;23;20458;-80
2022/04/06 02:41:58;;;;;;;19.98;16.35;;;5.70;79.00;;;;;;6064546;23;20433;-80
2022/04/06 02:44:25;;;;;;;22.92;17.23;;;5.70;78.40;;;;;;6065465;23;20395;-80
2022/04/06 02:46:52;;;;;;;20.88;16.83;;;5.70;80.50;;;;;;6063972;23;20375;-80
2022/04/06 02:49:19;;;;;;;20.17;16.90;;;5.70;80.70;;;;;;6064480;23;20412;-78
2022/04/06 02:51:46;;;;;;;22.75;17.35;;;5.70;80.10;;;;;;6063454;23;20430;-80
2022/04/06 02:54:13;;;;;;;20.52;17.08;;;5.70;80.10;;;;;;6066155;23;20387;-80
2022/04/06 02:56:40;;;;;;;22.75;17.20;;;5.70;80.70;;;;;;6063578;23;20394;-79
2022/04/06 02:59:07;;;;;;;22.35;17.38;;;5.70;80.20;;;;;;6062914;23;20383;-78
2022/04/06 03:01:34;;;;;;;21.23;17.08;;;5.70;80.10;;;;;;6064850;23;20415;-76
2022/04/06 03:04:03;;;;;;;23.35;17.20;;;5.70;80.50;;;;;;6064379;23;20375;-80
2022/04/06 03:06:30;;;;;;;21.55;17.30;;;5.60;80.90;;;;;;6065084;23;20888;-78
2022/04/06 03:08:57;;;;;;;22.10;17.17;;;5.70;80.80;;;;;;6038924;23;20847;-80
2022/04/06 03:11:24;;;;;;;23.23;18.67;;;5.70;80.10;;;;;;6064152;23;20852;-79
2022/04/06 03:13:51;;;;;;;22.58;18.25;;;5.60;81.30;;;;;;6063460;23;20383;-80
2022/04/06 03:16:18;;;;;;;23.98;19.85;;;5.50;81.60;;;;;;6064527;23;20387;-80
2022/04/06 03:18:45;;;;;;;22.83;19.33;;;5.30;83.60;;;;;;6063221;23;20707;-78
2022/04/06 03:21:12;;;;;;;25.88;19.40;;;5.30;83.90;;;;;;6064483;23;20403;-80
2022/04/06 03:23:39;;;;;;;25.25;19.27;;;5.30;84.30;;;;;;6063206;23;20756;-80
2022/04/06 03:26:06;;;;;;;24.70;19.77;;;5.30;83.20;;;;;;6064986;23;20391;-79
2022/04/06 03:28:32;;;;;;;23.85;19.15;;;5.30;83.70;;;;;;6064624;23;20391;-80
2022/04/06 03:30:59;;;;;;;23.30;18.60;;;5.20;83.60;;;;;;6063495;23;20418;-78
2022/04/06 03:33:27;;;;;;;23.48;18.45;;;5.30;82.90;;;;;;6064006;23;20443;-79
2022/04/06 03:35:54;;;;;;;23.55;18.23;;;5.30;82.20;;;;;;6064287;23;20462;-80
2022/04/06 03:38:21;;;;;;;22.50;17.90;;;5.40;81.80;;;;;;6064968;23;20391;-77
2022/04/06 03:40:48;;;;;;;27.15;20.35;;;5.40;81.30;;;;;;6064871;23;20407;-77
2022/04/06 03:43:15;;;;;;;57.28;36.25;;;5.40;80.60;;;;;;6064259;23;20787;-80
2022/04/06 03:45:42;;;;;;;90.32;53.47;;;5.40;80.80;;;;;;6063241;23;20388;-80
2022/04/06 03:48:09;;;;;;;77.35;48.42;;;5.40;81.80;;;;;;6063795;23;20409;-78
2022/04/06 03:50:36;;;;;;;105.20;60.80;;;5.40;81.10;;;;;;6062955;23;20399;-80
2022/04/06 03:53:03;;;;;;;90.45;53.10;;;5.40;83.30;;;;;;6063458;23;20387;-80
2022/04/06 03:55:30;;;;;;;56.45;35.05;;;5.40;82.40;;;;;;6064737;23;20930;-80
2022/04/06 03:57:56;;;;;;;44.53;29.70;;;5.40;82.50;;;;;;6064392;23;20414;-80
2022/04/06 04:00:29;;;;;;;42.25;29.67;;;5.30;82.70;;;;;;6063358;23;20402;-78
2022/04/06 04:02:55;;;;;;;34.58;24.52;;;5.30;82.40;;;;;;6062776;23;20390;-80
2022/04/06 04:05:22;;;;;;;26.35;20.35;;;5.20;82.50;;;;;;6062920;23;20446;-78
2022/04/06 04:07:49;;;;;;;23.08;18.05;;;5.20;81.90;;;;;;6062983;23;20383;-79
2022/04/06 04:10:19;;;;;;;24.83;18.55;;;5.10;81.50;;;;;;6063616;23;20435;-80
2022/04/06 04:12:47;;;;;;;23.60;17.90;;;5.00;82.00;;;;;;6062598;23;20415;-80
2022/04/06 04:15:15;;;;;;;21.90;17.75;;;5.00;82.10;;;;;;6063780;23;20417;-80
2022/04/06 04:17:42;;;;;;;22.10;17.52;;;4.90;82.60;;;;;;6062348;23;20442;-80
2022/04/06 04:20:10;;;;;;;24.75;17.65;;;4.90;81.80;;;;;;6062500;23;20383;-80
2022/04/06 04:22:37;;;;;;;20.73;16.45;;;4.90;81.40;;;;;;6063238;23;20716;-78
2022/04/06 04:25:06;;;;;;;23.35;17.88;;;4.90;81.60;;;;;;6063196;23;20383;-80
2022/04/06 04:27:33;;;;;;;23.38;17.52;;;4.90;81.60;;;;;;6063416;23;20398;-80
2022/04/06 04:29:59;;;;;;;23.42;18.08;;;4.80;82.40;;;;;;6062629;23;20387;-78
2022/04/06 04:32:33;;;;;;;26.70;18.95;;;4.70;82.50;;;;;;6063149;23;20849;-80
2022/04/06 04:35:03;;;;;;;23.88;18.30;;;4.70;82.00;;;;;;6038676;23;20390;-79
2022/04/06 04:37:31;;;;;;;22.77;17.52;;;4.80;81.30;;;;;;6040111;23;20438;-77
2022/04/06 04:39:57;;;;;;;24.80;18.38;;;4.80;81.30;;;;;;6038640;23;20375;-77
2022/04/06 04:42:24;;;;;;;28.30;19.45;;;4.80;81.70;;;;;;6039446;23;20406;-79
2022/04/06 04:44:52;;;;;;;29.15;19.73;;;4.60;83.50;;;;;;6038435;23;20685;-80
2022/04/06 04:47:18;;;;;;;28.00;18.55;;;4.60;82.80;;;;;;6063249;23;20379;-79
2022/04/06 04:49:45;;;;;;;22.40;16.93;;;4.40;85.20;;;;;;6038915;23;20383;-79
2022/04/06 04:52:12;;;;;;;22.83;17.08;;;4.40;84.70;;;;;;6040286;23;20375;-78
2022/04/06 04:54:39;;;;;;;23.67;18.15;;;4.50;84.10;;;;;;6039324;23;20379;-80
2022/04/06 04:57:06;;;;;;;21.00;17.42;;;4.50;84.80;;;;;;6039900;23;20446;-77
2022/04/06 04:59:33;;;;;;;20.90;16.80;;;4.40;84.70;;;;;;6065191;23;20380;-77
2022/04/06 05:02:00;;;;;;;23.13;17.60;;;4.40;84.30;;;;;;6038852;23;20387;-77
2022/04/06 05:04:27;;;;;;;23.55;17.25;;;4.40;85.00;;;;;;6066713;23;20383;-79
2022/04/06 05:06:54;;;;;;;20.45;16.42;;;4.30;84.90;;;;;;6063395;23;20438;-79
2022/04/06 05:09:20;;;;;;;23.83;17.20;;;4.40;84.10;;;;;;6039849;23;20414;-77
2022/04/06 05:11:47;;;;;;;20.60;16.30;;;4.40;83.30;;;;;;6061868;23;20387;-79
2022/04/06 05:14:14;;;;;;;24.10;18.27;;;4.40;83.00;;;;;;6040030;23;20371;-77
2022/04/06 05:16:41;;;;;;;21.00;16.65;;;4.40;83.30;;;;;;6064817;23;20388;-78
2022/04/06 05:19:08;;;;;;;23.52;18.55;;;4.40;84.20;;;;;;6062504;23;20431;-78
2022/04/06 05:21:37;;;;;;;23.25;17.65;;;4.40;84.40;;;;;;6040950;23;20927;-79
2022/04/06 05:24:04;;;;;;;21.20;17.05;;;4.40;83.70;;;;;;6039047;23;20387;-79
2022/04/06 05:26:38;;;;;;;21.60;17.27;;;4.50;83.20;;;;;;6040494;23;20393;-79
2022/04/06 05:29:05;;;;;;;22.42;17.60;;;4.50;82.60;;;;;;6061978;23;20391;-78
2022/04/06 05:31:32;;;;;;;22.63;17.98;;;4.50;82.50;;;;;;6008675;23;20723;-77
2022/04/06 05:33:59;;;;;;;22.40;17.98;;;4.60;82.40;;;;;;6009692;23;20393;-77
2022/04/06 05:36:28;;;;;;;24.35;18.63;;;4.70;81.90;;;;;;6034914;23;20377;-80
2022/04/06 05:38:58;;;;;;;21.95;17.75;;;4.70;82.50;;;;;;6034003;23;20415;-80
2022/04/06 05:41:25;;;;;;;26.33;19.27;;;4.70;83.00;;;;;;6010929;23;20385;-80
2022/04/06 05:43:52;;;;;;;22.93;18.17;;;4.70;83.30;;;;;;6010213;23;20853;-80
2022/04/06 05:46:19;;;;;;;27.02;18.15;;;4.70;83.00;;;;;;6012453;23;20428;-78
2022/04/06 05:48:46;;;;;;;24.52;18.63;;;4.70;83.10;;;;;;6011249;23;20391;-77
2022/04/06 05:51:14;;;;;;;23.52;17.42;;;4.60;83.30;;;;;;6034976;23;20505;-79
2022/04/06 05:53:41;;;;;;;26.95;18.60;;;4.60;83.30;;;;;;6036777;23;20417;-78
2022/04/06 05:56:08;;;;;;;22.63;17.38;;;4.60;84.20;;;;;;6034183;23;20384;-78
2022/04/06 05:58:35;;;;;;;22.27;17.23;;;4.60;83.90;;;;;;6010549;23;20388;-78
2022/04/06 06:01:02;;;;;;;24.63;18.00;;;4.60;83.90;;;;;;6010131;23;20413;-79
2022/04/06 06:03:29;;;;;;;24.65;18.52;;;4.70;83.80;;;;;;6010961;23;20385;-79
2022/04/06 06:05:56;;;;;;;25.23;19.83;;;4.70;83.80;;;;;;6009825;23;20408;-79
2022/04/06 06:08:23;;;;;;;26.08;19.15;;;4.80;86.10;;;;;;6011740;23;20392;-77
2022/04/06 06:10:50;;;;;;;24.23;18.92;;;4.80;85.50;;;;;;6035294;23;20385;-79
2022/04/06 06:13:16;;;;;;;25.10;18.27;;;4.90;85.20;;;;;;6010297;23;20376;-77
2022/04/06 06:15:44;;;;;;;24.60;19.13;;;5.00;85.20;;;;;;6012232;23;20857;-79
2022/04/06 06:18:12;;;;;;;25.35;19.38;;;5.10;85.00;;;;;;6035063;23;20384;-78
2022/04/06 06:20:38;;;;;;;28.85;22.75;;;5.20;85.80;;;;;;6013028;23;20425;-77
2022/04/06 06:23:05;;;;;;;31.13;22.23;;;5.30;85.60;;;;;;6036192;23;20389;-77
2022/04/06 06:25:32;;;;;;;31.60;23.52;;;5.40;85.40;;;;;;6013023;23;20834;-78
2022/04/06 06:27:59;;;;;;;30.80;23.23;;;5.50;85.90;;;;;;6036484;23;20392;-79
2022/04/06 06:30:27;;;;;;;30.92;22.80;;;5.60;85.30;;;;;;6027329;23;20379;-78
2022/04/06 06:32:55;;;;;;;29.37;23.33;;;5.80;84.90;;;;;;6040876;23;20454;-78
2022/04/06 06:35:24;;;;;;;32.58;24.90;;;5.90;84.70;;;;;;6064519;23;20380;-79
2022/04/06 06:37:54;;;;;;;44.90;31.05;;;6.00;84.80;;;;;;6042248;23;20387;-78
2022/04/06 06:40:22;;;;;;;36.38;29.75;;;6.20;86.30;;;;;;6039520;23;20375;-77
2022/04/06 06:42:49;;;;;;;34.50;27.75;;;6.40;85.80;;;;;;6065809;23;20383;-78
2022/04/06 06:45:17;;;;;;;38.10;28.17;;;6.40;85.10;;;;;;6063819;23;20391;-78
2022/04/06 06:47:45;;;;;;;35.22;24.67;;;6.50;86.20;;;;;;6066220;23;20398;-78
2022/04/06 06:50:14;;;;;;;28.02;23.33;;;6.70;88.00;;;;;;6040581;23;20745;-78
2022/04/06 06:52:41;;;;;;;30.70;22.73;;;6.90;87.20;;;;;;6040846;23;20379;-79
2022/04/06 06:55:14;;;;;;;29.77;23.23;;;6.90;86.90;;;;;;6065241;23;20390;-79
2022/04/06 06:57:41;;;;;;;26.88;23.20;;;7.10;87.00;;;;;;6041533;23;20379;-77
2022/04/06 07:00:11;;;;;;;27.10;22.58;;;7.20;86.80;;;;;;6040806;23;20697;-77
2022/04/06 07:02:40;;;;;;;29.30;22.50;;;7.40;85.90;;;;;;6066808;23;20383;-79
2022/04/06 07:05:08;;;;;;;28.50;22.30;;;7.40;84.90;;;;;;6040401;23;20391;-77
2022/04/06 07:08:05;;;;;;;24.55;20.13;;;7.60;84.50;;;;;;6042263;23;20383;-79
2022/04/06 07:10:32;;;;;;;22.92;19.33;;;7.70;82.20;;;;;;6022928;23;20367;-78
2022/04/06 07:12:59;;;;;;;24.00;18.90;;;7.90;81.30;;;;;;6040222;23;20430;-78
2022/04/06 07:15:27;;;;;;;23.35;18.10;;;8.00;80.30;;;;;;6064345;23;20760;-79
2022/04/06 07:17:58;;;;;;;21.02;17.55;;;8.20;79.00;;;;;;6040295;23;20394;-79
2022/04/06 07:20:27;;;;;;;21.95;17.67;;;8.40;78.90;;;;;;6040276;23;20395;-79
2022/04/06 07:22:54;;;;;;;22.13;17.95;;;8.60;78.00;;;;;;6040195;23;20772;-79
2022/04/06 07:25:21;;;;;;;22.03;17.27;;;8.70;77.20;;;;;;6039926;23;20763;-77
2022/04/06 07:27:47;;;;;;;25.42;18.52;;;8.90;76.20;;;;;;6040832;23;20387;-77
2022/04/06 07:30:14;;;;;;;21.05;17.05;;;9.10;76.70;;;;;;6063628;23;20398;-79
2022/04/06 07:32:42;;;;;;;23.23;17.87;;;9.20;74.40;;;;;;6040535;23;20387;-77
2022/04/06 07:35:09;;;;;;;20.30;17.15;;;9.40;74.10;;;;;;6040406;23;20387;-78
2022/04/06 07:37:51;;;;;;;22.73;17.55;;;9.60;73.70;;;;;;6040629;23;20375;-79
2022/04/06 07:40:21;;;;;;;22.33;16.73;;;9.70;72.80;;;;;;6065047;23;20379;-79
2022/04/06 07:42:49;;;;;;;20.92;16.80;;;9.90;71.70;;;;;;6041921;23;20375;-78
2022/04/06 07:45:20;;;;;;;19.63;15.95;;;10.00;71.40;;;;;;6040099;23;20927;-79
2022/04/06 07:47:51;;;;;;;20.10;15.63;;;10.10;69.80;;;;;;6064713;23;20384;-78
2022/04/06 07:50:20;;;;;;;20.05;14.55;;;10.20;68.80;;;;;;6039764;23;20438;-79
2022/04/06 07:52:47;;;;;;;17.40;14.55;;;10.40;67.10;;;;;;6065995;23;20463;-78
2022/04/06 07:55:14;;;;;;;19.48;15.27;;;10.40;65.10;;;;;;6040048;23;20379;-78
2022/04/06 07:57:42;;;;;;;19.02;13.80;;;10.40;65.30;;;;;;6040107;23;20379;-80
2022/04/06 08:00:15;;;;;;;17.10;13.80;;;10.60;64.90;;;;;;6040814;23;20387;-79
2022/04/06 08:02:45;;;;;;;19.00;13.68;;;10.80;64.50;;;;;;6063383;23;20371;-78
2022/04/06 08:05:12;;;;;;;17.30;13.00;;;10.90;63.30;;;;;;6039660;23;20394;-80
2022/04/06 08:07:42;;;;;;;15.55;12.80;;;11.00;62.00;;;;;;6038770;23;20407;-79
2022/04/06 08:10:14;;;;;;;15.70;13.18;;;11.30;62.40;;;;;;6042048;23;20382;-80
2022/04/06 08:12:41;;;;;;;12.63;11.32;;;11.40;62.00;;;;;;6039516;23;20911;-79
2022/04/06 08:15:09;;;;;;;14.68;11.55;;;11.70;61.90;;;;;;6040593;23;20399;-80
2022/04/06 08:17:38;;;;;;;15.95;12.95;;;12.00;60.50;;;;;;6038594;23;20383;-80
2022/04/06 08:20:08;;;;;;;15.43;12.73;;;12.00;59.80;;;;;;6040455;23;20383;-81
2022/04/06 08:22:36;;;;;;;15.82;12.65;;;12.30;61.50;;;;;;6039815;23;20864;-80
2022/04/06 08:25:03;;;;;;;13.93;12.40;;;12.50;60.30;;;;;;6066214;23;20438;-80
2022/04/06 08:27:50;;;;;;;15.88;13.75;;;12.80;60.20;;;;;;6043236;23;20889;-80
2022/04/06 08:30:19;;;;;;;16.70;13.95;;;13.10;60.80;;;;;;6040195;23;20430;-78
2022/04/06 08:32:47;;;;;;;16.00;14.30;;;13.30;60.80;;;;;;6036833;23;20835;-81
2022/04/06 08:35:14;;;;;;;13.63;10.77;;;13.50;59.00;;;;;;6040000;23;20939;-77
2022/04/06 08:37:41;;;;;;;12.83;10.77;;;13.50;58.60;;;;;;6036892;23;20383;-80
2022/04/06 08:40:12;;;;;;;11.52;10.38;;;13.40;57.80;;;;;;6039364;23;20411;-77
2022/04/06 08:42:39;;;;;;;12.52;10.35;;;13.60;58.40;;;;;;6039199;23;20852;-79
2022/04/06 08:45:08;;;;;;;11.15;10.05;;;13.80;57.70;;;;;;6038341;23;20379;-79
2022/04/06 08:47:36;;;;;;;11.88;9.85;;;13.90;58.00;;;;;;6038163;23;20391;-80
2022/04/06 08:50:05;;;;;;;10.80;9.43;;;14.00;56.80;;;;;;6062614;23;20390;-79
2022/04/06 08:52:35;;;;;;;10.85;9.75;;;13.60;56.60;;;;;;6060912;23;20382;-78
2022/04/06 08:55:22;;;;;;;10.45;8.70;;;13.40;57.70;;;;;;6062146;23;20454;-80
2022/04/06 08:57:49;;;;;;;11.45;9.75;;;13.70;57.60;;;;;;6062168;23;20386;-78
2022/04/06 09:00:18;;;;;;;12.10;9.90;;;13.80;58.90;;;;;;6061936;23;20768;-79
2022/04/06 09:02:46;;;;;;;11.07;9.90;;;13.70;57.60;;;;;;6062944;23;20394;-78
2022/04/06 09:05:13;;;;;;;10.95;9.82;;;13.80;58.20;;;;;;6062911;23;20383;-80
2022/04/06 09:07:41;;;;;;;12.40;11.18;;;14.00;58.60;;;;;;6061331;23;20387;-80
2022/04/06 09:10:09;;;;;;;14.73;11.27;;;14.30;58.70;;;;;;6038567;23;20383;-77
2022/04/06 09:12:36;;;;;;;12.23;10.93;;;14.40;58.80;;;;;;6037761;23;20933;-79
2022/04/06 09:15:10;;;;;;;12.73;11.05;;;14.50;57.90;;;;;;6038661;23;20844;-80
2022/04/06 09:17:49;;;;;;;13.75;11.02;;;14.60;58.60;;;;;;6037196;23;20391;-80
2022/04/06 09:20:24;;;;;;;11.80;10.60;;;14.60;57.50;;;;;;6039018;23;20391;-79
2022/04/06 09:22:51;;;;;;;11.63;10.27;;;14.80;56.50;;;;;;6037257;23;20371;-79
2022/04/06 09:25:21;;;;;;;12.13;10.53;;;14.90;56.70;;;;;;6038939;23;20685;-77
2022/04/06 09:27:48;;;;;;;10.68;9.43;;;15.00;56.90;;;;;;6037145;23;20444;-79
2022/04/06 09:30:16;;;;;;;11.75;9.38;;;15.00;55.80;;;;;;6011261;23;1228696;-80
2022/04/06 09:32:43;;;;;;;10.93;9.82;;;14.80;55.80;;;;;;6062014;23;20383;-80
2022/04/06 09:35:36;;;;;;;10.35;9.02;;;15.00;55.80;;;;;;6062963;23;20434;-78
2022/04/06 09:38:14;;;;;;;10.55;8.90;;;15.00;56.40;;;;;;6059096;23;20454;-81
2022/04/06 09:40:41;;;;;;;9.52;8.60;;;15.30;56.10;;;;;;6062112;23;20852;-78
2022/04/06 09:43:22;;;;;;;10.20;9.20;;;15.40;55.50;;;;;;6063258;23;20382;-80
2022/04/06 09:48:56;;;;;;;9.55;8.60;;;15.30;55.00;;;;;;6064241;23;20382;-79
2022/04/06 09:51:23;;;;;;;10.13;8.85;;;15.20;54.80;;;;;;6064617;23;20375;-81
2022/04/06 09:53:52;;;;;;;10.32;9.23;;;15.50;53.50;;;;;;6065318;23;20874;-79
2022/04/06 09:56:20;;;;;;;10.32;9.20;;;15.70;53.90;;;;;;6064321;23;20745;-79
2022/04/06 09:58:47;;;;;;;11.00;9.70;;;15.80;53.70;;;;;;6066002;23;20863;-81
2022/04/06 10:01:15;;;;;;;13.07;11.27;;;15.80;54.10;;;;;;6064564;23;20387;-78
2022/04/06 10:04:04;;;;;;;12.82;10.75;;;15.20;52.70;;;;;;6042044;23;20379;-80
2022/04/06 10:06:34;;;;;;;11.13;9.93;;;15.00;53.50;;;;;;6040363;23;20397;-80
2022/04/06 10:09:03;;;;;;;12.45;10.52;;;15.10;53.60;;;;;;6064484;23;20944;-80
2022/04/06 10:11:33;;;;;;;12.02;9.40;;;15.30;52.70;;;;;;6040683;23;20721;-78
2022/04/06 10:14:01;;;;;;;11.25;9.98;;;15.40;52.80;;;;;;6064380;23;20443;-80
2022/04/06 10:16:30;;;;;;;13.73;10.50;;;15.60;51.80;;;;;;6064641;23;20367;-80
2022/04/06 10:18:58;;;;;;;15.30;12.07;;;15.70;49.90;;;;;;6041259;23;20387;-79
2022/04/06 10:21:59;;;;;;;16.60;13.23;;;15.80;50.60;;;;;;6041016;23;20465;-78
2022/04/06 10:24:51;;;;;;;13.63;11.05;;;15.70;50.80;;;;;;6039972;23;20388;-80
2022/04/06 10:27:34;;;;;;;16.70;13.13;;;15.80;51.10;;;;;;6064716;23;20398;-80
2022/04/06 10:30:19;;;;;;;16.50;12.38;;;16.00;50.00;;;;;;6039157;23;20443;-78
2022/04/06 10:32:50;;;;;;;17.23;13.88;;;16.10;50.10;;;;;;6039890;23;20989;-79
2022/04/06 10:35:18;;;;;;;17.40;13.55;;;16.30;50.90;;;;;;6065772;23;20434;-81
2022/04/06 10:38:00;;;;;;;17.85;14.13;;;16.20;48.90;;;;;;6039979;23;20375;-80
2022/04/06 10:40:32;;;;;;;19.17;15.93;;;16.30;50.00;;;;;;6039841;23;20379;-80
2022/04/06 10:42:59;;;;;;;20.90;16.98;;;16.10;48.30;;;;;;6041401;23;20430;-80
2022/04/06 10:45:27;;;;;;;20.45;15.85;;;15.80;49.50;;;;;;6039882;23;20398;-80
2022/04/06 10:48:14;;;;;;;17.35;14.77;;;16.10;50.90;;;;;;6041168;23;20397;-79
2022/04/06 10:50:43;;;;;;;20.33;18.13;;;16.30;50.40;;;;;;6040920;23;20379;-80
2022/04/06 10:53:22;;;;;;;19.85;16.70;;;15.90;50.50;;;;;;6039826;23;20851;-80
2022/04/06 10:56:17;;;;;;;19.25;16.15;;;16.30;51.00;;;;;;6040706;23;21053;-81
2022/04/06 10:58:55;;;;;;;20.15;18.05;;;16.40;50.80;;;;;;6061374;23;20386;-77
2022/04/06 11:01:32;;;;;;;18.02;16.02;;;16.00;52.90;;;;;;6041233;23;20379;-81
2022/04/06 11:04:15;;;;;;;22.80;19.50;;;15.80;53.10;;;;;;6063784;23;21244;-80
2022/04/06 11:06:48;;;;;;;23.08;19.55;;;15.90;53.50;;;;;;6040184;23;20398;-78
2022/04/06 11:12:21;;;;;;;27.17;22.92;;;16.30;52.90;;;;;;6064833;23;20442;-80
2022/04/06 11:15:10;;;;;;;23.48;20.98;;;16.10;53.20;;;;;;6041456;23;20931;-78
2022/04/06 11:17:38;;;;;;;23.77;21.13;;;16.30;53.50;;;;;;6062470;23;21239;-79
2022/04/06 11:20:13;;;;;;;24.77;20.55;;;16.60;52.40;;;;;;6041468;23;20906;-81
2022/04/06 11:22:45;;;;;;;22.75;20.33;;;16.80;52.60;;;;;;6062732;23;20379;-82
2022/04/06 11:25:17;;;;;;;24.50;21.80;;;17.00;49.90;;;;;;6040784;23;20379;-78
2022/04/06 11:27:45;;;;;;;24.67;21.07;;;17.10;49.90;;;;;;6064531;23;20447;-81
2022/04/06 11:30:18;;;;;;;23.48;21.08;;;17.20;50.10;;;;;;6040321;23;20761;-79
2022/04/06 11:32:57;;;;;;;24.17;21.63;;;17.20;49.20;;;;;;6039605;23;20383;-79
2022/04/06 11:35:34;;;;;;;23.88;21.25;;;17.30;50.10;;;;;;6040484;23;20382;-81
2022/04/06 11:38:03;;;;;;;25.55;22.85;;;17.40;49.90;;;;;;6041211;23;20441;-79
2022/04/06 11:40:31;;;;;;;26.50;23.33;;;17.30;48.80;;;;;;6040125;23;20390;-79
2022/04/06 11:43:04;;;;;;;25.88;22.88;;;17.30;49.10;;;;;;6041690;23;20383;-81
2022/04/06 11:45:34;;;;;;;25.85;23.10;;;17.40;49.90;;;;;;6039849;23;20411;-81
2022/04/06 11:48:04;;;;;;;26.30;23.25;;;17.50;48.60;;;;;;6040342;23;20426;-81
2022/04/06 11:50:36;;;;;;;28.23;24.75;;;17.30;49.90;;;;;;6040040;23;20390;-82
2022/04/06 11:53:15;;;;;;;26.50;23.67;;;17.30;49.00;;;;;;6040263;23;20911;-82
2022/04/06 11:55:50;;;;;;;27.98;25.08;;;17.40;48.60;;;;;;6064404;23;20382;-81
2022/04/06 11:58:32;;;;;;;30.38;26.30;;;16.90;48.50;;;;;;6039690;23;20875;-81
2022/04/06 12:01:02;;;;;;;29.30;26.07;;;16.50;49.10;;;;;;6063738;23;20705;-79
2022/04/06 12:03:31;;;;;;;29.10;26.00;;;16.10;49.60;;;;;;6040384;23;20451;-80
2022/04/06 12:05:59;;;;;;;30.52;26.73;;;16.20;51.00;;;;;;6039308;23;20382;-81
2022/04/06 12:08:26;;;;;;;30.98;26.80;;;16.40;50.50;;;;;;6040611;23;20645;-81
2022/04/06 12:10:58;;;;;;;28.65;25.55;;;16.40;50.50;;;;;;6063474;23;20459;-81
2022/04/06 12:13:31;;;;;;;29.38;24.80;;;16.00;50.40;;;;;;6039442;23;20387;-82
2022/04/06 12:15:59;;;;;;;30.63;26.25;;;16.10;52.10;;;;;;6038247;23;20379;-82
2022/04/06 12:18:28;;;;;;;28.65;25.65;;;16.10;51.40;;;;;;6040006;23;20387;-80
2022/04/06 12:20:55;;;;;;;29.27;25.08;;;16.10;50.20;;;;;;6039491;23;20394;-80
2022/04/06 12:23:26;;;;;;;30.80;25.92;;;16.40;50.50;;;;;;6040838;23;20383;-83
2022/04/06 12:25:58;;;;;;;27.83;24.90;;;16.50;48.60;;;;;;6038947;23;20468;-82
2022/04/06 12:28:27;;;;;;;25.17;22.48;;;16.50;48.60;;;;;;6039809;23;20710;-82
2022/04/06 12:30:57;;;;;;;27.08;23.98;;;16.80;48.70;;;;;;6039091;23;20383;-82
2022/04/06 12:33:42;;;;;;;26.85;24.10;;;17.00;47.50;;;;;;6039947;23;20393;-79
2022/04/06 12:36:19;;;;;;;28.08;24.80;;;16.90;47.50;;;;;;6064131;23;20378;-81
2022/04/06 12:39:13;;;;;;;30.65;27.35;;;17.20;47.80;;;;;;6039158;23;20950;-81
2022/04/06 12:42:02;;;;;;;34.17;29.83;;;17.50;48.40;;;;;;6039202;23;20387;-82
2022/04/06 12:44:31;;;;;;;27.70;24.80;;;17.20;47.20;;;;;;6063257;23;20371;-81
2022/04/06 12:46:59;;;;;;;26.95;23.85;;;17.00;47.60;;;;;;6040434;23;20762;-79
2022/04/06 12:49:36;;;;;;;27.40;24.25;;;17.30;47.60;;;;;;6039664;23;20375;-82
2022/04/06 12:52:17;;;;;;;26.27;23.47;;;17.50;45.70;;;;;;6040259;23;20477;-82
2022/04/06 12:54:47;;;;;;;30.50;27.20;;;17.70;46.70;;;;;;6039108;23;20446;-82